Time;durP1;ratioP1;P1;durP2;ratioP2;P2;SDS_P1;SDS_P2;PMS_P1;PMS_P2;Temp;Humidity;BMP_temperature;BMP_pressure;BME280_temperature;BME280_humidity;BME280_pressure;Samples;Min_cycle;Max_cycle;Signal;HPM_P1;HPM_P2
2024/01/27 00:01:21;;;;;;;17.40;3.42;;;;;;;2.03;100.00;103151.44;4994766;28;20697;-79
2024/01/27 00:03:46;;;;;;;13.85;2.80;;;;;;;2.01;100.00;103151.47;5007620;28;20033;-77
2024/01/27 00:06:12;;;;;;;15.93;2.65;;;;;;;1.98;100.00;103159.25;5026993;28;20194;-77
2024/01/27 00:08:37;;;;;;;16.92;3.53;;;;;;;1.92;100.00;103157.72;5027664;28;20049;-77
2024/01/27 00:11:03;;;;;;;18.85;3.17;;;;;;;1.88;100.00;103161.22;5023832;28;20038;-79
2024/01/27 00:13:28;;;;;;;14.50;3.28;;;;;;;1.82;100.00;103163.94;5005464;28;20032;-78
2024/01/27 00:15:54;;;;;;;19.25;3.63;;;;;;;1.79;100.00;103163.19;5023936;28;20045;-77
2024/01/27 00:18:20;;;;;;;15.07;3.83;;;;;;;1.75;100.00;103167.53;5012434;28;20083;-77
2024/01/27 00:20:45;;;;;;;21.73;3.35;;;;;;;1.74;100.00;103166.72;5029534;28;20182;-77
2024/01/27 00:23:11;;;;;;;10.98;3.08;;;;;;;1.73;100.00;103162.50;5002844;28;20037;-78
2024/01/27 00:25:37;;;;;;;12.68;3.08;;;;;;;1.67;100.00;103166.91;5029349;28;20512;-77
2024/01/27 00:28:02;;;;;;;16.50;3.65;;;;;;;1.65;100.00;103166.13;5000437;28;20049;-77
2024/01/27 00:30:28;;;;;;;24.95;5.22;;;;;;;1.66;100.00;103168.66;5028373;28;20053;-77
2024/01/27 00:32:53;;;;;;;17.17;4.68;;;;;;;1.64;100.00;103175.53;4995226;28;20038;-78
2024/01/27 00:35:19;;;;;;;17.73;3.40;;;;;;;1.61;100.00;103177.31;5030061;28;20041;-77
2024/01/27 00:37:44;;;;;;;20.25;3.50;;;;;;;1.59;100.00;103171.41;5018038;28;20034;-76
2024/01/27 00:40:10;;;;;;;19.48;3.72;;;;;;;1.53;100.00;103177.50;5029534;28;20053;-76
2024/01/27 00:42:37;;;;;;;20.13;4.10;;;;;;;1.49;100.00;103174.19;5016672;28;20029;-77
2024/01/27 00:45:05;;;;;;;20.08;3.58;;;;;;;1.46;100.00;103173.44;4987997;28;20514;-78
2024/01/27 00:47:30;;;;;;;14.93;3.53;;;;;;;1.43;100.00;103179.47;5006557;28;20037;-78
2024/01/27 00:49:56;;;;;;;22.23;4.45;;;;;;;1.39;100.00;103174.44;5007722;28;20058;-77
2024/01/27 00:52:21;;;;;;;23.35;3.30;;;;;;;1.45;100.00;103187.94;5024749;28;20559;-77
2024/01/27 00:54:47;;;;;;;15.10;3.13;;;;;;;1.38;100.00;103183.03;5005622;28;20056;-78
2024/01/27 00:57:12;;;;;;;17.63;3.00;;;;;;;1.35;100.00;103189.84;5007104;28;20453;-77
2024/01/27 00:59:38;;;;;;;24.80;4.10;;;;;;;1.38;100.00;103183.03;5005486;28;20400;-77
2024/01/27 01:02:04;;;;;;;17.45;3.25;;;;;;;1.32;100.00;103189.94;5013387;28;20036;-79
2024/01/27 01:04:30;;;;;;;19.52;3.22;;;;;;;1.29;100.00;103191.75;5007771;28;20133;-77
2024/01/27 01:06:56;;;;;;;18.05;4.57;;;;;;;1.24;100.00;103189.28;5005684;28;20172;-76
2024/01/27 01:09:21;;;;;;;15.95;3.72;;;;;;;1.21;100.00;103181.69;5028783;28;20061;-77
2024/01/27 01:11:47;;;;;;;15.65;3.30;;;;;;;1.19;100.00;103188.56;5011756;28;20496;-77
2024/01/27 01:14:12;;;;;;;13.63;3.75;;;;;;;1.19;100.00;103193.69;5025352;28;20033;-78
2024/01/27 01:16:38;;;;;;;18.50;3.35;;;;;;;1.17;100.00;103190.31;5027150;28;20527;-78
2024/01/27 01:19:03;;;;;;;22.25;3.13;;;;;;;1.18;100.00;103197.09;5016806;28;20025;-78
2024/01/27 01:21:29;;;;;;;23.35;3.40;;;;;;;1.19;100.00;103198.78;5006740;28;20056;-77
2024/01/27 01:23:54;;;;;;;21.30;3.63;;;;;;;1.27;100.00;103190.94;5033342;28;20473;-78
2024/01/27 01:26:20;;;;;;;16.27;4.10;;;;;;;1.29;100.00;103199.41;5030689;28;20038;-77
2024/01/27 01:28:45;;;;;;;12.02;3.22;;;;;;;1.30;100.00;103193.41;5012242;28;20036;-77
2024/01/27 01:31:11;;;;;;;18.95;3.30;;;;;;;1.27;100.00;103201.16;5019238;28;20041;-77
2024/01/27 01:33:36;;;;;;;21.60;4.00;;;;;;;1.42;100.00;103202.50;5002946;28;20049;-78
2024/01/27 01:36:02;;;;;;;21.77;4.43;;;;;;;1.31;100.00;103195.09;4989897;28;20558;-77
2024/01/27 01:38:27;;;;;;;19.52;3.28;;;;;;;1.29;100.00;103195.13;5015007;28;20045;-76
2024/01/27 01:40:53;;;;;;;21.25;3.85;;;;;;;1.35;100.00;103186.47;5008844;28;20041;-78
2024/01/27 01:43:19;;;;;;;23.98;5.65;;;;;;;1.32;100.00;103184.84;5011250;28;20026;-78
2024/01/27 01:45:44;;;;;;;27.98;6.18;;;;;;;1.28;100.00;103179.81;4995967;28;20487;-78
2024/01/27 01:48:09;;;;;;;14.77;4.15;;;;;;;1.33;100.00;103186.50;5033044;28;20464;-78
2024/01/27 01:50:35;;;;;;;29.58;5.30;;;;;;;1.32;100.00;103187.41;5011389;28;20042;-78
2024/01/27 01:53:01;;;;;;;26.73;5.88;;;;;;;1.23;100.00;103186.78;5009168;28;20033;-79
2024/01/27 01:55:26;;;;;;;16.23;3.58;;;;;;;1.19;100.00;103187.72;5027292;28;20053;-78
2024/01/27 01:57:52;;;;;;;18.00;3.65;;;;;;;1.09;100.00;103195.63;4996754;28;20488;-77
2024/01/27 02:00:17;;;;;;;14.05;3.85;;;;;;;1.12;100.00;103207.47;5008952;28;20052;-77
2024/01/27 02:02:46;;;;;;;26.30;4.68;;;;;;;1.08;100.00;103208.44;5010148;28;20064;-77
2024/01/27 02:05:15;;;;;;;22.00;4.28;;;;;;;1.05;100.00;103200.81;5028515;28;20048;-77
2024/01/27 02:08:14;;;;;;;22.77;3.90;;;;;;;1.12;100.00;103202.38;5008698;28;20120;-77
2024/01/27 02:10:39;;;;;;;18.00;3.85;;;;;;;1.10;100.00;103207.50;5026037;28;20034;-76
2024/01/27 02:13:18;;;;;;;23.20;4.32;;;;;;;1.12;100.00;103199.81;5028291;28;20030;-78
2024/01/27 02:15:44;;;;;;;24.73;4.38;;;;;;;1.10;100.00;103204.13;5030172;28;20065;-77
2024/01/27 02:18:10;;;;;;;27.75;4.38;;;;;;;1.12;100.00;103197.25;5029388;28;20041;-78
2024/01/27 02:20:35;;;;;;;19.98;5.00;;;;;;;1.09;100.00;103202.44;5025109;28;20025;-77
2024/01/27 02:23:04;;;;;;;26.02;4.72;;;;;;;1.06;100.00;103199.97;5012562;28;20435;-77
2024/01/27 02:25:30;;;;;;;20.67;4.57;;;;;;;1.04;100.00;103197.44;5013856;28;20030;-77
2024/01/27 02:27:55;;;;;;;25.27;4.97;;;;;;;1.14;100.00;103193.78;5013292;28;20045;-78
2024/01/27 02:30:21;;;;;;;32.55;4.60;;;;;;;1.14;100.00;103190.38;5012623;28;20037;-77
2024/01/27 02:32:46;;;;;;;21.33;4.13;;;;;;;1.12;100.00;103192.16;5011056;28;20048;-78
2024/01/27 02:35:12;;;;;;;18.15;4.28;;;;;;;1.03;100.00;103192.34;5024897;28;20100;-76
2024/01/27 02:37:38;;;;;;;20.83;4.57;;;;;;;1.01;100.00;103197.50;5029438;28;20039;-77
2024/01/27 02:40:04;;;;;;;17.67;4.20;;;;;;;1.01;100.00;103194.09;4992629;28;20041;-76
2024/01/27 02:42:29;;;;;;;25.75;4.68;;;;;;;1.01;100.00;103201.78;4999856;28;20033;-77
2024/01/27 02:44:55;;;;;;;25.15;5.57;;;;;;;1.04;100.00;103194.88;5029026;28;20038;-78
2024/01/27 02:47:20;;;;;;;18.02;4.43;;;;;;;1.03;100.00;103200.03;5027959;28;20053;-78
2024/01/27 02:49:45;;;;;;;18.08;3.85;;;;;;;1.01;100.00;103209.44;4992081;28;20092;-77
2024/01/27 02:52:11;;;;;;;22.42;4.78;;;;;;;1.21;100.00;103209.00;5020666;28;20137;-78
2024/01/27 02:54:36;;;;;;;18.70;5.00;;;;;;;1.11;100.00;103198.97;5026856;28;20037;-76
2024/01/27 02:57:02;;;;;;;19.88;5.57;;;;;;;1.03;100.00;103205.97;5032592;28;20038;-77
2024/01/27 02:59:27;;;;;;;23.65;4.53;;;;;;;0.99;100.00;103206.09;5029818;28;20049;-77
2024/01/27 03:01:53;;;;;;;24.83;5.63;;;;;;;1.01;100.00;103206.88;5014004;28;20041;-78
2024/01/27 03:04:18;;;;;;;24.85;5.03;;;;;;;0.98;100.00;103210.34;5024752;28;21965;-76
2024/01/27 03:06:44;;;;;;;19.38;4.53;;;;;;;0.90;100.00;103213.06;4994835;28;20484;-78
2024/01/27 03:09:10;;;;;;;16.27;4.03;;;;;;;1.01;100.00;103206.88;5015060;28;20033;-76
2024/01/27 03:11:36;;;;;;;27.08;4.72;;;;;;;0.98;100.00;103212.91;5017285;28;20034;-77
2024/01/27 03:14:01;;;;;;;22.15;4.45;;;;;;;1.03;100.00;103212.78;5006602;28;20113;-78
2024/01/27 03:16:26;;;;;;;18.40;4.45;;;;;;;1.02;100.00;103206.00;5024344;28;20033;-77
2024/01/27 03:18:52;;;;;;;15.90;4.80;;;;;;;1.09;100.00;103204.97;5030559;28;20035;-77
2024/01/27 03:21:17;;;;;;;20.38;4.80;;;;;;;1.07;100.00;103205.00;5027049;28;20037;-78
2024/01/27 03:23:43;;;;;;;24.83;5.03;;;;;;;1.03;100.00;103213.63;5029984;28;20036;-77
2024/01/27 03:26:08;;;;;;;21.25;5.15;;;;;;;0.97;100.00;103201.00;5010141;28;20046;-77
2024/01/27 03:28:34;;;;;;;19.13;5.00;;;;;;;0.92;100.00;103213.03;5016708;28;20033;-78
2024/01/27 03:30:59;;;;;;;25.90;5.20;;;;;;;0.97;100.00;103201.00;4993774;28;20114;-78
2024/01/27 03:33:26;;;;;;;25.77;5.63;;;;;;;0.89;100.00;103208.00;5011538;28;20036;-77
2024/01/27 03:35:51;;;;;;;26.13;5.90;;;;;;;0.89;100.00;103213.13;5028256;28;20100;-79
2024/01/27 03:38:17;;;;;;;27.55;6.15;;;;;;;0.91;100.00;103208.81;5030306;28;20033;-77
2024/01/27 03:40:42;;;;;;;28.48;5.53;;;;;;;0.85;100.00;103206.38;4994573;28;20029;-79
2024/01/27 03:43:08;;;;;;;17.25;4.22;;;;;;;0.93;100.00;103212.16;5012039;28;20435;-78
2024/01/27 03:45:33;;;;;;;12.80;4.55;;;;;;;1.07;100.00;103207.56;5017986;28;20504;-77
2024/01/27 03:47:58;;;;;;;18.88;5.70;;;;;;;0.94;100.00;103209.59;5027512;28;20483;-78
2024/01/27 03:50:24;;;;;;;24.63;4.47;;;;;;;0.93;100.00;103217.28;5029539;28;20033;-78
2024/01/27 03:52:49;;;;;;;29.83;4.88;;;;;;;0.86;100.00;103214.00;5027129;28;20029;-77
2024/01/27 03:55:15;;;;;;;21.20;5.10;;;;;;;0.86;100.00;103214.00;5028276;28;20042;-77
2024/01/27 03:57:40;;;;;;;18.95;4.38;;;;;;;0.82;100.00;103209.84;5030288;28;20037;-79
2024/01/27 04:00:06;;;;;;;23.00;5.82;;;;;;;0.77;100.00;103222.72;5010712;28;20041;-78
2024/01/27 04:02:32;;;;;;;16.33;3.92;;;;;;;0.86;100.00;103225.94;5012321;28;20065;-78
2024/01/27 04:04:57;;;;;;;20.10;4.50;;;;;;;0.77;100.00;103227.84;5028679;28;20049;-77
2024/01/27 04:07:23;;;;;;;19.83;4.38;;;;;;;0.71;100.00;103237.34;4996557;28;20042;-78
2024/01/27 04:09:48;;;;;;;21.23;4.90;;;;;;;0.70;100.00;103235.66;4995675;28;20084;-78
2024/01/27 04:12:13;;;;;;;23.23;5.10;;;;;;;0.69;100.00;103231.41;5028090;28;20041;-77
2024/01/27 04:14:39;;;;;;;24.48;4.47;;;;;;;0.68;100.00;103237.38;5026947;28;20500;-78
2024/01/27 04:17:05;;;;;;;23.60;4.85;;;;;;;0.65;100.00;103240.84;5015907;28;20061;-78
2024/01/27 04:19:30;;;;;;;19.70;4.85;;;;;;;0.63;100.00;103244.31;5007777;28;20486;-78
2024/01/27 04:21:55;;;;;;;18.05;4.88;;;;;;;0.73;100.00;103243.25;5038769;28;20025;-78
2024/01/27 04:24:21;;;;;;;19.08;4.20;;;;;;;0.72;100.00;103246.69;4993945;28;20053;-77
2024/01/27 04:26:46;;;;;;;28.92;5.00;;;;;;;0.61;100.00;103235.84;5031708;28;20029;-77
2024/01/27 04:29:14;;;;;;;19.27;4.57;;;;;;;0.61;100.00;103234.13;4999207;28;20036;-77
2024/01/27 04:31:41;;;;;;;24.67;4.20;;;;;;;0.60;100.00;103249.47;5029052;28;20460;-79
2024/01/27 04:34:07;;;;;;;23.65;6.43;;;;;;;0.56;100.00;103241.88;4998447;28;20040;-78
2024/01/27 04:36:32;;;;;;;20.60;4.28;;;;;;;0.50;100.00;103238.63;5030884;28;20053;-78
2024/01/27 04:38:58;;;;;;;20.58;4.32;;;;;;;0.48;100.00;103246.31;5030829;28;20049;-78
2024/01/27 04:41:23;;;;;;;22.48;4.35;;;;;;;0.44;100.00;103241.31;5014780;28;20025;-77
2024/01/27 04:43:49;;;;;;;24.85;4.93;;;;;;;0.43;100.00;103232.78;5016339;28;20026;-77
2024/01/27 04:46:15;;;;;;;22.95;4.13;;;;;;;0.51;100.00;103230.94;4995975;28;20525;-78
2024/01/27 04:48:41;;;;;;;25.33;5.57;;;;;;;0.50;100.00;103236.91;5033006;28;20021;-77
2024/01/27 04:51:06;;;;;;;22.90;5.50;;;;;;;0.44;100.00;103233.66;5027575;28;20041;-77
2024/01/27 04:53:32;;;;;;;29.15;4.90;;;;;;;0.43;100.00;103232.78;5014725;28;20029;-78
2024/01/27 04:55:58;;;;;;;26.73;4.60;;;;;;;0.51;100.00;103245.41;5021654;28;20100;-78
2024/01/27 04:58:23;;;;;;;22.95;5.45;;;;;;;0.48;100.00;103232.72;5015661;28;20029;-77
2024/01/27 05:00:49;;;;;;;19.30;4.25;;;;;;;0.46;100.00;103229.34;5027386;28;20041;-78
2024/01/27 05:03:14;;;;;;;28.75;4.65;;;;;;;0.42;100.00;103230.28;5015397;28;20041;-78
2024/01/27 05:05:42;;;;;;;28.25;4.93;;;;;;;0.38;100.00;103227.78;5003380;28;20033;-78
2024/01/27 05:08:07;;;;;;;31.00;7.03;;;;;;;0.39;100.00;103226.91;5036353;28;20116;-78
2024/01/27 05:10:36;;;;;;;18.85;4.68;;;;;;;0.39;100.00;103226.06;5019786;28;20045;-77
2024/01/27 05:13:02;;;;;;;22.27;4.82;;;;;;;0.45;100.00;103228.50;5035430;28;20093;-79
2024/01/27 05:15:28;;;;;;;16.77;4.53;;;;;;;0.36;100.00;103232.09;5015599;28;20041;-77
2024/01/27 05:17:53;;;;;;;27.98;6.30;;;;;;;0.29;100.00;103227.97;5003969;28;20040;-78
2024/01/27 05:20:19;;;;;;;23.38;6.32;;;;;;;0.37;100.00;103228.63;4998085;28;20037;-77
2024/01/27 05:22:45;;;;;;;21.70;5.80;;;;;;;0.33;100.00;103229.56;5016112;28;20049;-78
2024/01/27 05:25:11;;;;;;;25.85;6.88;;;;;;;0.31;100.00;103230.50;5017299;28;20129;-76
2024/01/27 05:27:39;;;;;;;23.70;6.18;;;;;;;0.39;100.00;103231.16;5027797;28;20025;-77
2024/01/27 05:30:08;;;;;;;22.33;5.57;;;;;;;0.34;100.00;103243.16;5013815;28;20041;-78
2024/01/27 05:32:33;;;;;;;24.58;5.97;;;;;;;0.26;100.00;103239.94;5002179;28;20770;-77
2024/01/27 05:34:59;;;;;;;26.20;6.07;;;;;;;0.28;100.00;103245.84;4999658;28;20033;-77
2024/01/27 05:37:24;;;;;;;33.05;6.32;;;;;;;0.28;100.00;103236.47;5035683;28;20045;-78
2024/01/27 05:39:50;;;;;;;26.58;6.55;;;;;;;0.20;100.00;103235.78;5013818;28;20099;-77
2024/01/27 05:42:15;;;;;;;28.70;6.70;;;;;;;0.19;100.00;103236.69;4998194;28;20032;-77
2024/01/27 05:44:41;;;;;;;35.42;6.85;;;;;;;0.16;100.00;103237.56;5036729;28;20036;-79
2024/01/27 05:47:07;;;;;;;22.73;5.53;;;;;;;0.19;100.00;103232.41;4997270;28;20612;-78
2024/01/27 05:49:32;;;;;;;24.20;5.63;;;;;;;0.13;100.00;103232.53;5002038;28;20060;-78
2024/01/27 05:51:58;;;;;;;22.15;6.95;;;;;;;0.08;100.00;103231.78;5034279;28;20041;-80
2024/01/27 05:54:24;;;;;;;27.17;6.88;;;;;;;0.03;100.00;103227.63;5032401;28;20050;-78
2024/01/27 05:56:50;;;;;;;30.63;5.82;;;;;;;0.00;100.00;103233.63;5030088;28;20081;-78
2024/01/27 05:59:15;;;;;;;31.02;6.07;;;;;;;0.04;100.00;103234.38;5031699;28;20038;-78
2024/01/27 06:01:43;;;;;;;28.25;5.25;;;;;;;-0.03;100.00;103233.69;5013394;28;20029;-78
2024/01/27 06:04:08;;;;;;;35.15;6.82;;;;;;;0.03;100.00;103238.66;5024372;28;20047;-78
2024/01/27 06:06:34;;;;;;;20.08;6.68;;;;;;;-0.05;100.00;103243.91;5032833;28;20029;-78
2024/01/27 06:08:59;;;;;;;21.35;6.78;;;;;;;-0.10;100.00;103243.13;5030554;28;20419;-78
2024/01/27 06:11:25;;;;;;;20.10;7.38;;;;;;;-0.12;100.00;103244.88;5012530;28;20107;-78
2024/01/27 06:13:51;;;;;;;20.42;6.03;;;;;;;-0.16;100.00;103243.25;5026647;28;20064;-78
2024/01/27 06:16:18;;;;;;;24.38;6.95;;;;;;;-0.20;100.00;103234.81;5029928;28;20180;-78
2024/01/27 06:18:44;;;;;;;22.65;5.38;;;;;;;-0.21;100.00;103243.34;5015786;28;20080;-78
2024/01/27 06:21:10;;;;;;;24.20;7.13;;;;;;;-0.24;100.00;103245.94;5030615;28;20135;-78
2024/01/27 06:23:36;;;;;;;26.73;6.72;;;;;;;-0.23;100.00;103239.97;5035853;28;20029;-79
2024/01/27 06:26:08;;;;;;;41.70;8.07;;;;;;;-0.19;100.00;103250.94;5010946;28;20026;-79
2024/01/27 06:28:34;;;;;;;30.67;6.63;;;;;;;-0.20;100.00;103246.72;5016507;28;20630;-78
2024/01/27 06:31:00;;;;;;;28.63;6.45;;;;;;;-0.22;100.00;103251.84;5029799;28;20026;-78
2024/01/27 06:33:26;;;;;;;28.25;6.55;;;;;;;-0.23;100.00;103249.31;4994961;28;20030;-78
2024/01/27 06:35:51;;;;;;;23.92;5.57;;;;;;;-0.26;100.00;103241.75;5029326;28;20029;-78
2024/01/27 06:38:17;;;;;;;26.15;7.32;;;;;;;-0.26;100.00;103249.38;4999658;28;20021;-78
2024/01/27 06:40:42;;;;;;;32.38;5.82;;;;;;;-0.26;100.00;103251.94;5014858;28;20037;-77
2024/01/27 06:43:10;;;;;;;41.67;8.00;;;;;;;-0.22;100.00;103258.66;5009445;28;20488;-78
2024/01/27 06:45:36;;;;;;;14.93;5.03;;;;;;;-0.23;100.00;103249.31;4997004;28;20045;-76
2024/01/27 06:48:01;;;;;;;30.00;7.22;;;;;;;-0.22;100.00;103243.38;5027517;28;20026;-78
2024/01/27 06:50:27;;;;;;;21.45;6.50;;;;;;;-0.22;100.00;103244.19;5033898;28;20120;-78
2024/01/27 06:52:52;;;;;;;30.27;7.07;;;;;;;-0.17;100.00;103244.13;5016317;28;20093;-78
2024/01/27 06:55:18;;;;;;;27.05;7.22;;;;;;;-0.13;100.00;103248.31;5018623;28;20119;-78
2024/01/27 06:57:43;;;;;;;30.48;5.85;;;;;;;-0.18;100.00;103254.34;5014819;28;20041;-77
2024/01/27 07:00:09;;;;;;;34.17;7.72;;;;;;;-0.15;100.00;103260.25;4995679;28;20045;-79
2024/01/27 07:02:34;;;;;;;20.35;7.38;;;;;;;-0.17;100.00;103273.88;5013154;28;20029;-78
2024/01/27 07:05:00;;;;;;;31.90;6.35;;;;;;;-0.23;100.00;103270.59;5015567;28;20029;-80
2024/01/27 07:07:27;;;;;;;31.08;6.15;;;;;;;-0.26;100.00;103269.78;5031818;28;20029;-78
2024/01/27 07:09:54;;;;;;;26.67;5.63;;;;;;;-0.29;100.00;103275.75;5015441;28;20041;-78
2024/01/27 07:12:20;;;;;;;27.75;8.18;;;;;;;-0.34;100.00;103276.69;5026758;28;20038;-78
2024/01/27 07:14:45;;;;;;;30.48;6.50;;;;;;;-0.34;100.00;103279.25;5010222;28;20042;-79
2024/01/27 07:17:11;;;;;;;27.00;5.75;;;;;;;-0.38;100.00;103272.53;5017283;28;20045;-78
2024/01/27 07:19:36;;;;;;;30.75;6.63;;;;;;;-0.31;100.00;103272.41;5015429;28;20046;-79
2024/01/27 07:22:03;;;;;;;26.73;5.93;;;;;;;-0.35;100.00;103273.31;5013599;28;20024;-78
2024/01/27 07:24:29;;;;;;;32.17;7.25;;;;;;;-0.30;100.00;103274.09;5011926;28;20611;-77
2024/01/27 07:26:54;;;;;;;34.50;6.45;;;;;;;-0.23;100.00;103282.47;5029257;28;20053;-78
2024/01/27 07:29:20;;;;;;;34.28;6.28;;;;;;;-0.25;100.00;103279.94;5029434;28;20488;-78
2024/01/27 07:31:46;;;;;;;27.27;6.72;;;;;;;-0.27;100.00;103276.56;5029085;28;20037;-79
2024/01/27 07:34:11;;;;;;;26.85;5.68;;;;;;;-0.30;100.00;103281.75;5035046;28;20052;-78
2024/01/27 07:36:37;;;;;;;33.75;9.23;;;;;;;-0.27;100.00;103281.69;4997424;28;20123;-78
2024/01/27 07:39:04;;;;;;;38.53;7.95;;;;;;;-0.21;100.00;103281.59;5038809;28;20029;-77
2024/01/27 07:41:30;;;;;;;23.65;6.72;;;;;;;-0.17;100.00;103289.19;5037166;28;20021;-78
2024/01/27 07:43:56;;;;;;;30.65;6.88;;;;;;;-0.09;100.00;103295.00;5014673;28;20120;-78
2024/01/27 07:46:22;;;;;;;26.42;6.80;;;;;;;-0.13;100.00;103299.31;5035582;28;20060;-78
2024/01/27 07:48:51;;;;;;;29.58;6.50;;;;;;;-0.06;100.00;103308.56;5032058;28;20029;-77
2024/01/27 07:51:16;;;;;;;36.03;7.05;;;;;;;-0.09;100.00;103307.78;4994113;28;20068;-78
2024/01/27 07:53:42;;;;;;;29.55;7.13;;;;;;;-0.06;100.00;103300.03;4993384;28;20034;-78
2024/01/27 07:56:08;;;;;;;39.95;8.25;;;;;;;-0.01;100.00;103305.91;5036253;28;20030;-79
2024/01/27 07:58:33;;;;;;;34.13;6.60;;;;;;;-0.04;100.00;103304.28;5027931;28;20076;-78
2024/01/27 08:00:59;;;;;;;35.67;7.60;;;;;;;-0.02;100.00;103307.63;5008451;28;20049;-78
2024/01/27 08:03:24;;;;;;;31.55;6.60;;;;;;;0.00;100.00;103310.16;5015161;28;20172;-78
2024/01/27 08:05:50;;;;;;;31.00;6.95;;;;;;;0.04;100.00;103306.69;5011098;28;20030;-78
2024/01/27 08:08:15;;;;;;;35.00;7.70;;;;;;;0.08;100.00;103307.47;4995613;28;20044;-79
2024/01/27 08:10:41;;;;;;;28.42;6.57;;;;;;;0.11;100.00;103317.63;5016413;28;20044;-80
2024/01/27 08:13:07;;;;;;;35.85;6.97;;;;;;;0.19;100.00;103326.00;5025676;28;20048;-78
2024/01/27 08:15:32;;;;;;;35.28;7.32;;;;;;;0.27;100.00;103336.91;5027569;28;20038;-78
2024/01/27 08:17:57;;;;;;;37.20;7.88;;;;;;;0.38;100.00;103324.78;5027005;28;20705;-78
2024/01/27 08:20:23;;;;;;;26.35;6.55;;;;;;;0.40;100.00;103334.97;5029942;28;20045;-77
2024/01/27 08:22:51;;;;;;;26.90;6.45;;;;;;;0.40;100.00;103334.97;5020000;28;20032;-77
2024/01/27 08:25:18;;;;;;;30.55;6.57;;;;;;;0.55;100.00;103337.25;5012087;28;20061;-77
2024/01/27 08:27:43;;;;;;;28.92;6.97;;;;;;;0.71;100.00;103340.34;4994204;28;20021;-79
2024/01/27 08:30:10;;;;;;;33.47;7.97;;;;;;;0.78;100.00;103339.34;5024888;28;20052;-77
2024/01/27 08:32:35;;;;;;;30.98;6.90;;;;;;;0.77;100.00;103337.69;5014050;28;20024;-78
2024/01/27 08:35:01;;;;;;;34.83;6.60;;;;;;;0.93;100.00;103330.53;5027984;28;20047;-78
2024/01/27 08:37:27;;;;;;;40.67;7.10;;;;;;;0.88;100.00;103336.63;5015598;28;20041;-77
2024/01/27 08:39:52;;;;;;;29.05;6.45;;;;;;;0.86;100.00;103336.63;5018880;28;20040;-79
2024/01/27 08:42:18;;;;;;;26.27;7.35;;;;;;;0.82;100.00;103335.03;5017991;28;20040;-78
2024/01/27 08:44:43;;;;;;;30.63;7.68;;;;;;;0.96;100.00;103327.06;5033892;28;20057;-77
2024/01/27 08:47:09;;;;;;;36.22;7.88;;;;;;;1.03;100.00;103331.19;5000202;28;20040;-78
2024/01/27 08:49:34;;;;;;;33.60;8.95;;;;;;;1.04;100.00;103322.66;5016850;28;20037;-78
2024/01/27 08:52:00;;;;;;;25.08;6.60;;;;;;;1.10;100.00;103325.06;5019783;28;20203;-82
2024/01/27 08:54:25;;;;;;;35.53;7.78;;;;;;;1.13;100.00;103324.16;5035098;28;20038;-78
2024/01/27 08:56:51;;;;;;;33.38;7.13;;;;;;;1.20;100.00;103322.31;5004496;28;20029;-78
2024/01/27 08:59:16;;;;;;;35.50;6.45;;;;;;;1.40;100.00;103317.59;5031086;28;20091;-78
2024/01/27 09:01:42;;;;;;;31.00;6.60;;;;;;;1.52;100.00;103311.38;5021953;28;20029;-77
2024/01/27 09:04:08;;;;;;;28.02;6.28;;;;;;;1.72;100.00;103314.28;5019959;28;20029;-77
2024/01/27 09:06:33;;;;;;;36.83;8.13;;;;;;;2.04;100.00;103312.66;5019352;28;20068;-78
2024/01/27 09:08:58;;;;;;;38.40;6.47;;;;;;;2.29;100.00;103306.91;5003394;28;20033;-78
2024/01/27 09:11:27;;;;;;;25.65;5.82;;;;;;;2.44;100.00;103300.53;5018854;28;20065;-78
2024/01/27 09:13:53;;;;;;;27.48;6.22;;;;;;;2.52;100.00;103308.81;5021501;28;20033;-78
2024/01/27 09:16:18;;;;;;;23.88;5.78;;;;;;;2.61;100.00;103311.13;5003856;28;20487;-78
2024/01/27 09:18:45;;;;;;;22.02;5.28;;;;;;;2.65;100.00;103301.66;5017481;28;20554;-78
2024/01/27 09:21:11;;;;;;;31.38;6.93;;;;;;;2.75;100.00;103305.66;5017074;28;20468;-79
2024/01/27 09:23:37;;;;;;;25.52;5.95;;;;;;;2.71;100.00;103304.88;5017874;28;20574;-78
2024/01/27 09:26:03;;;;;;;27.20;7.32;;;;;;;2.67;100.00;103312.69;5032799;28;20113;-79
2024/01/27 09:28:28;;;;;;;25.23;6.70;;;;;;;2.55;100.00;103308.75;5011542;28;20100;-79
2024/01/27 09:30:53;;;;;;;21.67;5.75;;;;;;;2.44;100.00;103309.03;5013672;28;20045;-81
2024/01/27 09:33:22;;;;;;;39.70;7.00;;;;;;;2.46;100.00;103311.56;5011319;28;20038;-78
2024/01/27 09:35:49;;;;;;;27.70;6.40;;;;;;;2.48;100.00;103310.63;5025389;28;20037;-79
2024/01/27 09:38:14;;;;;;;26.10;5.93;;;;;;;2.58;100.00;103313.81;5000239;28;20040;-79
2024/01/27 09:40:40;;;;;;;24.50;5.50;;;;;;;2.58;100.00;103302.69;5029397;28;20030;-81
2024/01/27 09:43:06;;;;;;;23.27;5.53;;;;;;;2.58;100.00;103302.69;5033694;28;20060;-79
2024/01/27 09:45:32;;;;;;;21.77;5.68;;;;;;;2.58;100.00;103305.25;4999798;28;20037;-78
2024/01/27 09:47:59;;;;;;;28.77;5.43;;;;;;;2.51;100.00;103313.13;5013239;28;20454;-79
2024/01/27 09:50:25;;;;;;;47.67;12.82;;;;;;;2.50;100.00;103314.00;5009483;28;20496;-80
2024/01/27 09:52:51;;;;;;;31.88;8.07;;;;;;;2.74;100.00;103314.19;5026534;28;20033;-79
2024/01/27 09:55:16;;;;;;;33.40;6.50;;;;;;;2.85;100.00;103319.84;5014838;28;20057;-79
2024/01/27 09:57:44;;;;;;;28.98;6.70;;;;;;;2.91;100.00;103323.97;5032323;28;20088;-79
2024/01/27 10:00:13;;;;;;;27.85;6.90;;;;;;;3.08;100.00;103324.31;5017112;28;20705;-78
2024/01/27 10:02:43;;;;;;;32.95;7.22;;;;;;;3.14;100.00;103328.41;5032099;28;20044;-78
2024/01/27 10:05:09;;;;;;;42.65;10.20;;;;;;;3.07;100.00;103329.47;5014805;28;20041;-79
2024/01/27 10:07:34;;;;;;;19.83;5.47;;;;;;;3.03;100.00;103338.16;5011115;28;20563;-79
2024/01/27 10:10:01;;;;;;;25.38;4.82;;;;;;;3.15;100.00;103339.53;5012236;28;20029;-79
2024/01/27 10:12:28;;;;;;;24.38;4.90;;;;;;;3.25;100.00;103341.75;5011541;28;20499;-78
2024/01/27 10:14:54;;;;;;;31.77;6.57;;;;;;;3.18;100.00;103350.50;5009071;28;20037;-79
2024/01/27 10:17:25;;;;;;;23.92;5.45;;;;;;;3.29;100.00;103347.63;5029236;28;20037;-78
2024/01/27 10:20:04;;;;;;;24.83;5.45;;;;;;;3.36;100.00;103354.25;5033267;28;20086;-78
2024/01/27 10:22:43;;;;;;;28.67;4.80;;;;;;;3.35;100.00;103344.88;5036947;28;20127;-78
2024/01/27 10:25:09;;;;;;;25.83;5.07;;;;;;;3.22;100.00;103344.44;5034961;28;20128;-81
2024/01/27 10:27:35;;;;;;;21.75;5.60;;;;;;;3.50;100.00;103352.13;5017738;28;20022;-79
2024/01/27 10:30:01;;;;;;;28.30;6.03;;;;;;;3.37;100.00;103342.25;4999035;28;20082;-79
2024/01/27 10:32:26;;;;;;;17.95;4.30;;;;;;;3.35;100.00;103352.56;5000221;28;20044;-78
2024/01/27 10:35:21;;;;;;;30.90;5.75;;;;;;;3.47;100.00;103351.38;5021887;28;20133;-80
2024/01/27 10:37:46;;;;;;;20.05;5.35;;;;;;;3.46;100.00;103352.25;4988470;28;20388;-78
2024/01/27 10:40:12;;;;;;;26.58;5.45;;;;;;;3.43;100.00;103352.38;5015183;28;20041;-79
2024/01/27 10:42:38;;;;;;;19.90;4.88;;;;;;;3.46;100.00;103347.13;4992366;28;20037;-79
2024/01/27 10:45:04;;;;;;;21.42;4.90;;;;;;;3.60;100.00;103346.69;5029933;28;20029;-78
2024/01/27 10:47:31;;;;;;;24.30;4.68;;;;;;;3.51;100.00;103352.94;4999343;28;20072;-79
2024/01/27 10:49:58;;;;;;;35.33;6.50;;;;;;;3.50;100.00;103347.00;5013981;28;20033;-78
2024/01/27 10:52:28;;;;;;;23.33;5.32;;;;;;;3.47;100.00;103341.94;5017072;28;20507;-79
2024/01/27 10:55:06;;;;;;;23.02;5.63;;;;;;;3.43;100.00;103334.41;5027075;28;20059;-78
2024/01/27 10:57:33;;;;;;;24.40;5.88;;;;;;;3.59;100.00;103340.72;4998079;28;20387;-79
2024/01/27 11:00:00;;;;;;;30.23;6.53;;;;;;;3.61;100.00;103331.25;5013418;28;20037;-77
2024/01/27 11:02:30;;;;;;;32.55;6.35;;;;;;;3.64;100.00;103332.88;5015162;28;20506;-78
2024/01/27 11:04:56;;;;;;;23.40;5.07;;;;;;;3.80;100.00;103333.22;5010799;28;20048;-80
2024/01/27 11:07:24;;;;;;;23.05;6.68;;;;;;;3.95;100.00;103327.56;5039875;28;20029;-79
2024/01/27 11:09:51;;;;;;;24.05;5.18;;;;;;;4.08;100.00;103325.44;5027736;28;20034;-78
2024/01/27 11:12:19;;;;;;;26.50;5.13;;;;;;;4.19;100.00;103327.66;4997625;28;20036;-80